sensor_id;sensor_type;location;lat;lon;timestamp;temperature;humidity
77985;DHT22;67177;47.240;-1.546;2023-04-04T00:01:18;7.30;65.10
77985;DHT22;67177;47.240;-1.546;2023-04-04T00:03:44;7.30;64.90
77985;DHT22;67177;47.240;-1.546;2023-04-04T00:06:09;7.30;64.90
77985;DHT22;67177;47.240;-1.546;2023-04-04T00:08:35;7.30;65.00
77985;DHT22;67177;47.240;-1.546;2023-04-04T00:11:01;7.20;65.00
77985;DHT22;67177;47.240;-1.546;2023-04-04T00:13:27;7.20;65.00
77985;DHT22;67177;47.240;-1.546;2023-04-04T00:15:54;7.20;65.00
77985;DHT22;67177;47.240;-1.546;2023-04-04T00:18:20;7.20;65.10
77985;DHT22;67177;47.240;-1.546;2023-04-04T00:20:46;7.20;65.00
77985;DHT22;67177;47.240;-1.546;2023-04-04T00:23:11;7.20;64.90
77985;DHT22;67177;47.240;-1.546;2023-04-04T00:25:37;7.20;65.00
77985;DHT22;67177;47.240;-1.546;2023-04-04T00:28:03;7.20;65.20
77985;DHT22;67177;47.240;-1.546;2023-04-04T00:30:29;7.20;65.20
77985;DHT22;67177;47.240;-1.546;2023-04-04T00:32:56;7.10;65.40
77985;DHT22;67177;47.240;-1.546;2023-04-04T00:35:22;7.10;65.60
77985;DHT22;67177;47.240;-1.546;2023-04-04T00:37:48;7.00;65.50
77985;DHT22;67177;47.240;-1.546;2023-04-04T00:40:14;7.00;65.70
77985;DHT22;67177;47.240;-1.546;2023-04-04T00:42:39;7.00;65.70
77985;DHT22;67177;47.240;-1.546;2023-04-04T00:45:06;7.00;65.70
77985;DHT22;67177;47.240;-1.546;2023-04-04T00:47:33;7.00;65.80
77985;DHT22;67177;47.240;-1.546;2023-04-04T00:49:59;6.90;65.80
77985;DHT22;67177;47.240;-1.546;2023-04-04T00:52:26;6.90;65.70
77985;DHT22;67177;47.240;-1.546;2023-04-04T00:54:54;6.90;65.70
77985;DHT22;67177;47.240;-1.546;2023-04-04T00:57:20;6.90;65.80
77985;DHT22;67177;47.240;-1.546;2023-04-04T00:59:45;6.90;65.80
77985;DHT22;67177;47.240;-1.546;2023-04-04T01:02:11;6.90;65.90
77985;DHT22;67177;47.240;-1.546;2023-04-04T01:04:37;6.80;66.00
77985;DHT22;67177;47.240;-1.546;2023-04-04T01:07:03;6.80;66.20
77985;DHT22;67177;47.240;-1.546;2023-04-04T01:09:29;6.80;66.30
77985;DHT22;67177;47.240;-1.546;2023-04-04T01:11:55;6.80;66.30
77985;DHT22;67177;47.240;-1.546;2023-04-04T01:14:21;6.80;66.30
77985;DHT22;67177;47.240;-1.546;2023-04-04T01:16:49;6.70;66.30
77985;DHT22;67177;47.240;-1.546;2023-04-04T01:19:25;6.70;66.40
77985;DHT22;67177;47.240;-1.546;2023-04-04T01:21:53;6.70;66.30
77985;DHT22;67177;47.240;-1.546;2023-04-04T01:24:21;6.60;66.20
77985;DHT22;67177;47.240;-1.546;2023-04-04T01:26:49;6.60;66.10
77985;DHT22;67177;47.240;-1.546;2023-04-04T01:29:15;6.60;66.00
77985;DHT22;67177;47.240;-1.546;2023-04-04T01:31:43;6.60;66.00
77985;DHT22;67177;47.240;-1.546;2023-04-04T01:34:31;6.50;66.20
77985;DHT22;67177;47.240;-1.546;2023-04-04T01:39:57;6.50;66.30
77985;DHT22;67177;47.240;-1.546;2023-04-04T01:42:24;6.50;66.10
77985;DHT22;67177;47.240;-1.546;2023-04-04T01:44:56;6.50;66.10
77985;DHT22;67177;47.240;-1.546;2023-04-04T01:47:22;6.40;66.30
77985;DHT22;67177;47.240;-1.546;2023-04-04T01:49:49;6.40;66.40
77985;DHT22;67177;47.240;-1.546;2023-04-04T01:52:14;6.40;66.40
77985;DHT22;67177;47.240;-1.546;2023-04-04T01:54:43;6.40;66.40
77985;DHT22;67177;47.240;-1.546;2023-04-04T01:57:08;6.40;66.60
77985;DHT22;67177;47.240;-1.546;2023-04-04T01:59:34;6.40;66.60
77985;DHT22;67177;47.240;-1.546;2023-04-04T02:02:00;6.40;66.70
77985;DHT22;67177;47.240;-1.546;2023-04-04T02:04:26;6.30;66.80
77985;DHT22;67177;47.240;-1.546;2023-04-04T02:06:51;6.30;66.90
77985;DHT22;67177;47.240;-1.546;2023-04-04T02:09:17;6.30;67.00
77985;DHT22;67177;47.240;-1.546;2023-04-04T02:11:43;6.30;67.00
77985;DHT22;67177;47.240;-1.546;2023-04-04T02:14:08;6.30;67.00
77985;DHT22;67177;47.240;-1.546;2023-04-04T02:16:34;6.30;67.00
77985;DHT22;67177;47.240;-1.546;2023-04-04T02:19:00;6.30;66.90
77985;DHT22;67177;47.240;-1.546;2023-04-04T02:21:25;6.20;66.80
77985;DHT22;67177;47.240;-1.546;2023-04-04T02:23:52;6.20;66.80
77985;DHT22;67177;47.240;-1.546;2023-04-04T02:26:18;6.20;66.70
77985;DHT22;67177;47.240;-1.546;2023-04-04T02:28:43;6.20;66.70
77985;DHT22;67177;47.240;-1.546;2023-04-04T02:31:09;6.20;66.80
77985;DHT22;67177;47.240;-1.546;2023-04-04T02:33:35;6.20;66.60
77985;DHT22;67177;47.240;-1.546;2023-04-04T02:36:01;6.10;66.60
77985;DHT22;67177;47.240;-1.546;2023-04-04T02:38:27;6.10;66.70
77985;DHT22;67177;47.240;-1.546;2023-04-04T02:40:53;6.10;66.60
77985;DHT22;67177;47.240;-1.546;2023-04-04T02:43:18;6.10;66.40
77985;DHT22;67177;47.240;-1.546;2023-04-04T02:45:46;6.10;66.50
77985;DHT22;67177;47.240;-1.546;2023-04-04T02:48:12;6.10;66.40
77985;DHT22;67177;47.240;-1.546;2023-04-04T02:50:38;6.10;66.30
77985;DHT22;67177;47.240;-1.546;2023-04-04T02:53:03;6.10;66.50
77985;DHT22;67177;47.240;-1.546;2023-04-04T02:55:29;6.00;66.60
77985;DHT22;67177;47.240;-1.546;2023-04-04T02:57:55;6.00;66.70
77985;DHT22;67177;47.240;-1.546;2023-04-04T03:00:20;6.00;66.70
77985;DHT22;67177;47.240;-1.546;2023-04-04T03:02:53;6.00;66.70
77985;DHT22;67177;47.240;-1.546;2023-04-04T03:05:19;6.00;66.50
77985;DHT22;67177;47.240;-1.546;2023-04-04T03:07:45;6.00;66.60
77985;DHT22;67177;47.240;-1.546;2023-04-04T03:10:11;6.00;66.50
77985;DHT22;67177;47.240;-1.546;2023-04-04T03:12:37;6.00;66.50
77985;DHT22;67177;47.240;-1.546;2023-04-04T03:15:02;5.90;66.60
77985;DHT22;67177;47.240;-1.546;2023-04-04T03:17:29;5.90;66.50
77985;DHT22;67177;47.240;-1.546;2023-04-04T03:19:55;5.90;66.60
77985;DHT22;67177;47.240;-1.546;2023-04-04T03:22:21;5.90;66.60
77985;DHT22;67177;47.240;-1.546;2023-04-04T03:24:47;5.80;66.50
77985;DHT22;67177;47.240;-1.546;2023-04-04T03:27:12;5.80;66.60
77985;DHT22;67177;47.240;-1.546;2023-04-04T03:29:38;5.80;66.50
77985;DHT22;67177;47.240;-1.546;2023-04-04T03:32:04;5.80;66.50
77985;DHT22;67177;47.240;-1.546;2023-04-04T03:34:30;5.80;66.60
77985;DHT22;67177;47.240;-1.546;2023-04-04T03:36:56;5.80;66.70
77985;DHT22;67177;47.240;-1.546;2023-04-04T03:39:26;5.80;66.60
77985;DHT22;67177;47.240;-1.546;2023-04-04T03:41:52;5.80;66.60
77985;DHT22;67177;47.240;-1.546;2023-04-04T03:44:18;5.80;66.40
77985;DHT22;67177;47.240;-1.546;2023-04-04T03:46:43;5.70;66.60
77985;DHT22;67177;47.240;-1.546;2023-04-04T03:49:09;5.70;66.80
77985;DHT22;67177;47.240;-1.546;2023-04-04T03:51:35;5.70;66.70
77985;DHT22;67177;47.240;-1.546;2023-04-04T03:54:01;5.70;66.80
77985;DHT22;67177;47.240;-1.546;2023-04-04T03:56:26;5.70;66.90
77985;DHT22;67177;47.240;-1.546;2023-04-04T03:58:52;5.70;67.00
77985;DHT22;67177;47.240;-1.546;2023-04-04T04:01:20;5.70;66.90
77985;DHT22;67177;47.240;-1.546;2023-04-04T04:03:45;5.70;66.80
77985;DHT22;67177;47.240;-1.546;2023-04-04T04:06:11;5.80;66.80
77985;DHT22;67177;47.240;-1.546;2023-04-04T04:08:37;5.70;67.00
77985;DHT22;67177;47.240;-1.546;2023-04-04T04:11:04;5.70;67.00
77985;DHT22;67177;47.240;-1.546;2023-04-04T04:13:29;5.70;67.00
77985;DHT22;67177;47.240;-1.546;2023-04-04T04:15:55;5.70;66.90
77985;DHT22;67177;47.240;-1.546;2023-04-04T04:18:21;5.70;66.90
77985;DHT22;67177;47.240;-1.546;2023-04-04T04:20:48;5.70;66.90
77985;DHT22;67177;47.240;-1.546;2023-04-04T04:23:14;5.70;67.00
77985;DHT22;67177;47.240;-1.546;2023-04-04T04:25:39;5.70;67.10
77985;DHT22;67177;47.240;-1.546;2023-04-04T04:28:05;5.70;67.20
77985;DHT22;67177;47.240;-1.546;2023-04-04T04:30:31;5.70;67.20
77985;DHT22;67177;47.240;-1.546;2023-04-04T04:32:57;5.70;67.20
77985;DHT22;67177;47.240;-1.546;2023-04-04T04:35:23;5.60;67.20
77985;DHT22;67177;47.240;-1.546;2023-04-04T04:37:48;5.60;67.20
77985;DHT22;67177;47.240;-1.546;2023-04-04T04:40:14;5.60;67.20
77985;DHT22;67177;47.240;-1.546;2023-04-04T04:42:44;5.50;67.30
77985;DHT22;67177;47.240;-1.546;2023-04-04T04:45:10;5.50;67.20
77985;DHT22;67177;47.240;-1.546;2023-04-04T04:47:39;5.40;67.20
77985;DHT22;67177;47.240;-1.546;2023-04-04T04:50:05;5.40;67.20
77985;DHT22;67177;47.240;-1.546;2023-04-04T04:52:35;5.30;67.30
77985;DHT22;67177;47.240;-1.546;2023-04-04T04:55:01;5.40;67.20
77985;DHT22;67177;47.240;-1.546;2023-04-04T04:57:27;5.30;67.20
77985;DHT22;67177;47.240;-1.546;2023-04-04T04:59:52;5.30;67.30
77985;DHT22;67177;47.240;-1.546;2023-04-04T05:02:18;5.30;67.20
77985;DHT22;67177;47.240;-1.546;2023-04-04T05:04:43;5.30;67.20
77985;DHT22;67177;47.240;-1.546;2023-04-04T05:07:10;5.30;67.20
77985;DHT22;67177;47.240;-1.546;2023-04-04T05:09:37;5.30;67.30
77985;DHT22;67177;47.240;-1.546;2023-04-04T05:12:03;5.30;67.20
77985;DHT22;67177;47.240;-1.546;2023-04-04T05:14:29;5.30;67.20
77985;DHT22;67177;47.240;-1.546;2023-04-04T05:16:55;5.20;67.20
77985;DHT22;67177;47.240;-1.546;2023-04-04T05:19:21;5.20;67.10
77985;DHT22;67177;47.240;-1.546;2023-04-04T05:21:47;5.20;67.10
77985;DHT22;67177;47.240;-1.546;2023-04-04T05:24:12;5.20;67.20
77985;DHT22;67177;47.240;-1.546;2023-04-04T05:26:38;5.20;67.20
77985;DHT22;67177;47.240;-1.546;2023-04-04T05:29:04;5.10;67.20
77985;DHT22;67177;47.240;-1.546;2023-04-04T05:31:30;5.20;67.30
77985;DHT22;67177;47.240;-1.546;2023-04-04T05:33:55;5.20;67.20
77985;DHT22;67177;47.240;-1.546;2023-04-04T05:36:21;5.20;67.10
77985;DHT22;67177;47.240;-1.546;2023-04-04T05:38:47;5.20;67.00
77985;DHT22;67177;47.240;-1.546;2023-04-04T05:41:12;5.20;67.00
77985;DHT22;67177;47.240;-1.546;2023-04-04T05:43:38;5.20;66.90
77985;DHT22;67177;47.240;-1.546;2023-04-04T05:46:04;5.20;66.70
77985;DHT22;67177;47.240;-1.546;2023-04-04T05:48:29;5.20;66.70
77985;DHT22;67177;47.240;-1.546;2023-04-04T05:50:55;5.20;66.80
77985;DHT22;67177;47.240;-1.546;2023-04-04T05:53:21;5.20;66.90
77985;DHT22;67177;47.240;-1.546;2023-04-04T05:55:53;5.20;66.80
77985;DHT22;67177;47.240;-1.546;2023-04-04T05:58:18;5.20;66.80
77985;DHT22;67177;47.240;-1.546;2023-04-04T06:00:44;5.20;66.80
77985;DHT22;67177;47.240;-1.546;2023-04-04T06:03:10;5.20;66.90
77985;DHT22;67177;47.240;-1.546;2023-04-04T06:05:35;5.20;66.90
77985;DHT22;67177;47.240;-1.546;2023-04-04T06:08:01;5.20;66.90
77985;DHT22;67177;47.240;-1.546;2023-04-04T06:10:27;5.20;66.90
77985;DHT22;67177;47.240;-1.546;2023-04-04T06:12:52;5.20;66.90
77985;DHT22;67177;47.240;-1.546;2023-04-04T06:15:18;5.10;66.90
77985;DHT22;67177;47.240;-1.546;2023-04-04T06:17:44;5.10;66.80
77985;DHT22;67177;47.240;-1.546;2023-04-04T06:20:10;5.10;66.70
77985;DHT22;67177;47.240;-1.546;2023-04-04T06:22:36;5.10;66.80
77985;DHT22;67177;47.240;-1.546;2023-04-04T06:25:01;5.10;66.90
77985;DHT22;67177;47.240;-1.546;2023-04-04T06:27:27;5.10;66.70
77985;DHT22;67177;47.240;-1.546;2023-04-04T06:29:53;5.10;66.70
77985;DHT22;67177;47.240;-1.546;2023-04-04T06:32:19;5.10;66.70
77985;DHT22;67177;47.240;-1.546;2023-04-04T06:34:46;5.10;66.50
77985;DHT22;67177;47.240;-1.546;2023-04-04T06:37:12;5.10;66.40
77985;DHT22;67177;47.240;-1.546;2023-04-04T06:39:37;5.20;66.40
77985;DHT22;67177;47.240;-1.546;2023-04-04T06:42:03;5.20;66.20
77985;DHT22;67177;47.240;-1.546;2023-04-04T06:44:29;5.20;66.00
77985;DHT22;67177;47.240;-1.546;2023-04-04T06:46:55;5.30;66.00
77985;DHT22;67177;47.240;-1.546;2023-04-04T06:49:20;5.30;65.70
77985;DHT22;67177;47.240;-1.546;2023-04-04T06:51:46;5.40;65.60
77985;DHT22;67177;47.240;-1.546;2023-04-04T06:54:15;5.40;65.50
77985;DHT22;67177;47.240;-1.546;2023-04-04T06:56:41;5.50;65.30
77985;DHT22;67177;47.240;-1.546;2023-04-04T06:59:06;5.60;65.20
77985;DHT22;67177;47.240;-1.546;2023-04-04T07:01:35;5.60;65.20
77985;DHT22;67177;47.240;-1.546;2023-04-04T07:04:01;5.70;65.10
77985;DHT22;67177;47.240;-1.546;2023-04-04T07:06:27;5.70;64.80
77985;DHT22;67177;47.240;-1.546;2023-04-04T07:08:54;5.80;64.70
77985;DHT22;67177;47.240;-1.546;2023-04-04T07:11:20;5.90;64.50
77985;DHT22;67177;47.240;-1.546;2023-04-04T07:13:48;5.90;64.50
77985;DHT22;67177;47.240;-1.546;2023-04-04T07:16:14;6.00;64.30
77985;DHT22;67177;47.240;-1.546;2023-04-04T07:18:40;6.10;63.70
77985;DHT22;67177;47.240;-1.546;2023-04-04T07:21:06;6.10;63.50
77985;DHT22;67177;47.240;-1.546;2023-04-04T07:23:31;6.10;63.40
77985;DHT22;67177;47.240;-1.546;2023-04-04T07:25:57;6.20;63.30
77985;DHT22;67177;47.240;-1.546;2023-04-04T07:28:23;6.30;63.00
77985;DHT22;67177;47.240;-1.546;2023-04-04T07:30:48;6.40;62.30
77985;DHT22;67177;47.240;-1.546;2023-04-04T07:33:14;6.40;62.20
77985;DHT22;67177;47.240;-1.546;2023-04-04T07:35:40;6.50;61.50
77985;DHT22;67177;47.240;-1.546;2023-04-04T07:38:05;6.60;61.50
77985;DHT22;67177;47.240;-1.546;2023-04-04T07:40:31;6.60;60.60
77985;DHT22;67177;47.240;-1.546;2023-04-04T07:42:57;6.70;60.40
77985;DHT22;67177;47.240;-1.546;2023-04-04T07:45:23;6.70;60.50
77985;DHT22;67177;47.240;-1.546;2023-04-04T07:47:49;6.80;60.20
77985;DHT22;67177;47.240;-1.546;2023-04-04T07:50:15;6.90;59.90
77985;DHT22;67177;47.240;-1.546;2023-04-04T07:52:41;6.90;59.70
77985;DHT22;67177;47.240;-1.546;2023-04-04T07:55:08;7.00;59.00
77985;DHT22;67177;47.240;-1.546;2023-04-04T07:57:37;7.00;58.40
77985;DHT22;67177;47.240;-1.546;2023-04-04T08:00:05;7.00;58.60
77985;DHT22;67177;47.240;-1.546;2023-04-04T08:02:37;7.10;58.80
77985;DHT22;67177;47.240;-1.546;2023-04-04T08:05:03;7.10;57.70
77985;DHT22;67177;47.240;-1.546;2023-04-04T08:07:29;7.10;56.80
77985;DHT22;67177;47.240;-1.546;2023-04-04T08:09:54;7.20;57.10
77985;DHT22;67177;47.240;-1.546;2023-04-04T08:12:20;7.30;56.80
77985;DHT22;67177;47.240;-1.546;2023-04-04T08:14:46;7.30;56.40
77985;DHT22;67177;47.240;-1.546;2023-04-04T08:17:12;7.30;55.50
77985;DHT22;67177;47.240;-1.546;2023-04-04T08:19:39;7.40;55.30
77985;DHT22;67177;47.240;-1.546;2023-04-04T08:22:04;7.40;54.50
77985;DHT22;67177;47.240;-1.546;2023-04-04T08:24:30;7.50;54.00
77985;DHT22;67177;47.240;-1.546;2023-04-04T08:26:56;7.50;54.50
77985;DHT22;67177;47.240;-1.546;2023-04-04T08:29:22;7.50;53.70
77985;DHT22;67177;47.240;-1.546;2023-04-04T08:31:47;7.50;52.30
77985;DHT22;67177;47.240;-1.546;2023-04-04T08:34:13;7.60;52.40
77985;DHT22;67177;47.240;-1.546;2023-04-04T08:36:39;7.60;53.20
77985;DHT22;67177;47.240;-1.546;2023-04-04T08:39:05;7.70;53.00
77985;DHT22;67177;47.240;-1.546;2023-04-04T08:41:31;7.80;51.70
77985;DHT22;67177;47.240;-1.546;2023-04-04T08:44:01;7.80;51.30
77985;DHT22;67177;47.240;-1.546;2023-04-04T08:46:29;7.80;49.10
77985;DHT22;67177;47.240;-1.546;2023-04-04T08:48:55;7.80;49.30
77985;DHT22;67177;47.240;-1.546;2023-04-04T08:51:23;7.80;49.10
77985;DHT22;67177;47.240;-1.546;2023-04-04T08:53:50;7.90;49.60
77985;DHT22;67177;47.240;-1.546;2023-04-04T08:56:17;7.90;49.50
77985;DHT22;67177;47.240;-1.546;2023-04-04T08:58:42;8.00;49.40
77985;DHT22;67177;47.240;-1.546;2023-04-04T09:01:09;8.10;48.40
77985;DHT22;67177;47.240;-1.546;2023-04-04T09:03:36;8.10;47.90
77985;DHT22;67177;47.240;-1.546;2023-04-04T09:06:03;8.10;47.70
77985;DHT22;67177;47.240;-1.546;2023-04-04T09:08:29;8.20;47.80
77985;DHT22;67177;47.240;-1.546;2023-04-04T09:10:55;8.20;47.90
77985;DHT22;67177;47.240;-1.546;2023-04-04T09:13:21;8.30;47.80
77985;DHT22;67177;47.240;-1.546;2023-04-04T09:15:50;8.40;47.60
77985;DHT22;67177;47.240;-1.546;2023-04-04T09:18:16;8.40;47.30
77985;DHT22;67177;47.240;-1.546;2023-04-04T09:20:49;8.50;47.70
77985;DHT22;67177;47.240;-1.546;2023-04-04T09:23:19;8.60;48.00
77985;DHT22;67177;47.240;-1.546;2023-04-04T09:25:52;8.70;48.10
77985;DHT22;67177;47.240;-1.546;2023-04-04T09:28:20;8.70;48.30
77985;DHT22;67177;47.240;-1.546;2023-04-04T09:30:52;8.70;47.70
77985;DHT22;67177;47.240;-1.546;2023-04-04T09:33:20;8.80;47.80
77985;DHT22;67177;47.240;-1.546;2023-04-04T09:35:57;8.80;48.10
77985;DHT22;67177;47.240;-1.546;2023-04-04T09:38:25;8.90;48.40
77985;DHT22;67177;47.240;-1.546;2023-04-04T09:40:51;9.00;48.40
77985;DHT22;67177;47.240;-1.546;2023-04-04T09:43:17;9.00;47.80
77985;DHT22;67177;47.240;-1.546;2023-04-04T09:45:44;9.10;47.90
77985;DHT22;67177;47.240;-1.546;2023-04-04T09:48:11;9.10;48.10
77985;DHT22;67177;47.240;-1.546;2023-04-04T09:50:45;9.10;48.10
77985;DHT22;67177;47.240;-1.546;2023-04-04T09:53:17;9.10;46.60
77985;DHT22;67177;47.240;-1.546;2023-04-04T09:55:51;9.10;46.80
77985;DHT22;67177;47.240;-1.546;2023-04-04T09:58:22;9.20;46.80
77985;DHT22;67177;47.240;-1.546;2023-04-04T10:00:51;9.20;45.30
77985;DHT22;67177;47.240;-1.546;2023-04-04T10:03:21;9.20;45.40
77985;DHT22;67177;47.240;-1.546;2023-04-04T10:05:56;9.20;45.80
77985;DHT22;67177;47.240;-1.546;2023-04-04T10:08:23;9.30;45.70
77985;DHT22;67177;47.240;-1.546;2023-04-04T10:10:50;9.30;46.00
77985;DHT22;67177;47.240;-1.546;2023-04-04T10:13:35;9.40;46.10
77985;DHT22;67177;47.240;-1.546;2023-04-04T10:16:02;9.50;46.30
77985;DHT22;67177;47.240;-1.546;2023-04-04T10:18:30;9.50;46.20
77985;DHT22;67177;47.240;-1.546;2023-04-04T10:20:58;9.60;45.00
77985;DHT22;67177;47.240;-1.546;2023-04-04T10:23:25;9.60;44.60
77985;DHT22;67177;47.240;-1.546;2023-04-04T10:25:56;9.60;44.30
77985;DHT22;67177;47.240;-1.546;2023-04-04T10:28:23;9.60;43.90
77985;DHT22;67177;47.240;-1.546;2023-04-04T10:33:38;9.70;44.00
77985;DHT22;67177;47.240;-1.546;2023-04-04T10:36:07;9.70;43.80
77985;DHT22;67177;47.240;-1.546;2023-04-04T10:38:41;9.70;43.50
77985;DHT22;67177;47.240;-1.546;2023-04-04T10:41:08;9.70;43.20
77985;DHT22;67177;47.240;-1.546;2023-04-04T10:43:39;9.70;43.60
77985;DHT22;67177;47.240;-1.546;2023-04-04T10:46:12;9.70;43.70
77985;DHT22;67177;47.240;-1.546;2023-04-04T10:48:40;9.80;44.00
77985;DHT22;67177;47.240;-1.546;2023-04-04T10:51:07;9.90;44.10
77985;DHT22;67177;47.240;-1.546;2023-04-04T10:53:34;9.90;44.10
77985;DHT22;67177;47.240;-1.546;2023-04-04T10:56:00;10.00;43.40
77985;DHT22;67177;47.240;-1.546;2023-04-04T10:58:27;10.00;42.70
77985;DHT22;67177;47.240;-1.546;2023-04-04T11:00:56;10.00;43.40
77985;DHT22;67177;47.240;-1.546;2023-04-04T11:03:23;10.10;43.40
77985;DHT22;67177;47.240;-1.546;2023-04-04T11:05:50;10.10;43.80
77985;DHT22;67177;47.240;-1.546;2023-04-04T11:08:22;10.20;43.70
77985;DHT22;67177;47.240;-1.546;2023-04-04T11:10:53;10.20;43.90
77985;DHT22;67177;47.240;-1.546;2023-04-04T11:13:33;10.30;44.10
77985;DHT22;67177;47.240;-1.546;2023-04-04T11:16:19;10.40;43.80
77985;DHT22;67177;47.240;-1.546;2023-04-04T11:18:46;10.40;44.10
77985;DHT22;67177;47.240;-1.546;2023-04-04T11:21:22;10.40;43.80
77985;DHT22;67177;47.240;-1.546;2023-04-04T11:24:12;10.40;44.20
77985;DHT22;67177;47.240;-1.546;2023-04-04T11:26:41;10.50;44.20
77985;DHT22;67177;47.240;-1.546;2023-04-04T11:29:07;10.50;44.10
77985;DHT22;67177;47.240;-1.546;2023-04-04T11:31:41;10.50;43.70
77985;DHT22;67177;47.240;-1.546;2023-04-04T11:34:09;10.60;43.90
77985;DHT22;67177;47.240;-1.546;2023-04-04T11:39:14;10.60;44.00
77985;DHT22;67177;47.240;-1.546;2023-04-04T11:44:16;10.60;43.80
77985;DHT22;67177;47.240;-1.546;2023-04-04T11:46:42;10.60;43.50
77985;DHT22;67177;47.240;-1.546;2023-04-04T11:49:09;10.70;43.70
77985;DHT22;67177;47.240;-1.546;2023-04-04T11:51:37;10.70;43.80
77985;DHT22;67177;47.240;-1.546;2023-04-04T11:54:04;10.70;43.40
77985;DHT22;67177;47.240;-1.546;2023-04-04T11:56:35;10.70;43.30
77985;DHT22;67177;47.240;-1.546;2023-04-04T11:59:05;10.80;43.40
77985;DHT22;67177;47.240;-1.546;2023-04-04T12:01:31;10.90;43.60
77985;DHT22;67177;47.240;-1.546;2023-04-04T12:03:58;10.90;43.40
77985;DHT22;67177;47.240;-1.546;2023-04-04T12:06:29;10.90;42.70
77985;DHT22;67177;47.240;-1.546;2023-04-04T12:08:57;10.90;42.80
77985;DHT22;67177;47.240;-1.546;2023-04-04T12:11:24;10.90;43.20
77985;DHT22;67177;47.240;-1.546;2023-04-04T12:13:50;11.00;43.50
77985;DHT22;67177;47.240;-1.546;2023-04-04T12:16:19;11.00;42.80
77985;DHT22;67177;47.240;-1.546;2023-04-04T12:18:45;11.00;42.90
77985;DHT22;67177;47.240;-1.546;2023-04-04T12:21:10;11.10;43.10
77985;DHT22;67177;47.240;-1.546;2023-04-04T12:23:36;11.10;43.40
77985;DHT22;67177;47.240;-1.546;2023-04-04T12:26:02;11.20;43.20
77985;DHT22;67177;47.240;-1.546;2023-04-04T12:28:30;11.30;43.20
77985;DHT22;67177;47.240;-1.546;2023-04-04T12:30:59;11.30;42.90
77985;DHT22;67177;47.240;-1.546;2023-04-04T12:33:33;11.20;43.00
77985;DHT22;67177;47.240;-1.546;2023-04-04T12:36:00;11.20;43.40
77985;DHT22;67177;47.240;-1.546;2023-04-04T12:38:28;11.30;43.80
77985;DHT22;67177;47.240;-1.546;2023-04-04T12:40:56;11.30;43.80
77985;DHT22;67177;47.240;-1.546;2023-04-04T12:43:25;11.40;43.80
77985;DHT22;67177;47.240;-1.546;2023-04-04T12:45:53;11.40;43.80
77985;DHT22;67177;47.240;-1.546;2023-04-04T12:48:28;11.50;43.90
77985;DHT22;67177;47.240;-1.546;2023-04-04T12:50:58;11.50;43.50
77985;DHT22;67177;47.240;-1.546;2023-04-04T12:53:28;11.60;43.60
77985;DHT22;67177;47.240;-1.546;2023-04-04T12:55:58;11.60;43.40
77985;DHT22;67177;47.240;-1.546;2023-04-04T12:58:25;11.60;42.90
77985;DHT22;67177;47.240;-1.546;2023-04-04T13:00:53;11.60;42.70
77985;DHT22;67177;47.240;-1.546;2023-04-04T13:03:20;11.60;42.40
77985;DHT22;67177;47.240;-1.546;2023-04-04T13:05:47;11.60;42.20
77985;DHT22;67177;47.240;-1.546;2023-04-04T13:08:14;11.70;42.50
77985;DHT22;67177;47.240;-1.546;2023-04-04T13:11:16;11.80;42.60
77985;DHT22;67177;47.240;-1.546;2023-04-04T13:13:41;11.80;42.50
77985;DHT22;67177;47.240;-1.546;2023-04-04T13:18:54;11.90;42.70
77985;DHT22;67177;47.240;-1.546;2023-04-04T13:21:20;12.00;42.80
77985;DHT22;67177;47.240;-1.546;2023-04-04T13:23:46;12.00;43.00
77985;DHT22;67177;47.240;-1.546;2023-04-04T13:26:12;12.00;42.90
77985;DHT22;67177;47.240;-1.546;2023-04-04T13:28:37;12.10;42.60
77985;DHT22;67177;47.240;-1.546;2023-04-04T13:31:04;12.10;41.80
77985;DHT22;67177;47.240;-1.546;2023-04-04T13:33:31;12.10;41.40
77985;DHT22;67177;47.240;-1.546;2023-04-04T13:35:57;12.10;41.40
77985;DHT22;67177;47.240;-1.546;2023-04-04T13:38:23;12.10;41.50
77985;DHT22;67177;47.240;-1.546;2023-04-04T13:40:49;12.10;41.80
77985;DHT22;67177;47.240;-1.546;2023-04-04T13:43:15;12.20;41.70
77985;DHT22;67177;47.240;-1.546;2023-04-04T13:45:41;12.20;41.80
77985;DHT22;67177;47.240;-1.546;2023-04-04T13:48:08;12.20;40.90
77985;DHT22;67177;47.240;-1.546;2023-04-04T13:50:38;12.20;40.60
77985;DHT22;67177;47.240;-1.546;2023-04-04T13:53:04;12.30;40.70
77985;DHT22;67177;47.240;-1.546;2023-04-04T13:55:30;12.30;41.00
77985;DHT22;67177;47.240;-1.546;2023-04-04T13:57:56;12.30;41.30
77985;DHT22;67177;47.240;-1.546;2023-04-04T14:00:22;12.40;40.60
77985;DHT22;67177;47.240;-1.546;2023-04-04T14:02:49;12.40;40.70
77985;DHT22;67177;47.240;-1.546;2023-04-04T14:05:17;12.40;40.80
77985;DHT22;67177;47.240;-1.546;2023-04-04T14:07:42;12.40;40.80
77985;DHT22;67177;47.240;-1.546;2023-04-04T14:10:09;12.40;40.80
77985;DHT22;67177;47.240;-1.546;2023-04-04T14:12:36;12.50;40.80
77985;DHT22;67177;47.240;-1.546;2023-04-04T14:15:03;12.50;40.70
77985;DHT22;67177;47.240;-1.546;2023-04-04T14:17:29;12.50;40.80
77985;DHT22;67177;47.240;-1.546;2023-04-04T14:19:55;12.50;40.90
77985;DHT22;67177;47.240;-1.546;2023-04-04T14:22:20;12.50;40.20
77985;DHT22;67177;47.240;-1.546;2023-04-04T14:24:46;12.50;40.50
77985;DHT22;67177;47.240;-1.546;2023-04-04T14:27:12;12.60;40.00
77985;DHT22;67177;47.240;-1.546;2023-04-04T14:29:37;12.60;40.10
77985;DHT22;67177;47.240;-1.546;2023-04-04T14:32:03;12.60;40.40
77985;DHT22;67177;47.240;-1.546;2023-04-04T14:34:29;12.60;40.80
77985;DHT22;67177;47.240;-1.546;2023-04-04T14:36:54;12.60;41.40
77985;DHT22;67177;47.240;-1.546;2023-04-04T14:39:20;12.70;41.80
77985;DHT22;67177;47.240;-1.546;2023-04-04T14:41:46;12.70;42.00
77985;DHT22;67177;47.240;-1.546;2023-04-04T14:44:12;12.70;41.30
77985;DHT22;67177;47.240;-1.546;2023-04-04T14:46:38;12.70;40.80
77985;DHT22;67177;47.240;-1.546;2023-04-04T14:49:04;12.70;41.10
77985;DHT22;67177;47.240;-1.546;2023-04-04T14:51:31;12.70;40.50
77985;DHT22;67177;47.240;-1.546;2023-04-04T14:53:57;12.80;39.50
77985;DHT22;67177;47.240;-1.546;2023-04-04T14:56:23;12.80;39.90
77985;DHT22;67177;47.240;-1.546;2023-04-04T14:58:48;12.80;40.30
77985;DHT22;67177;47.240;-1.546;2023-04-04T15:01:15;12.80;40.40
77985;DHT22;67177;47.240;-1.546;2023-04-04T15:03:40;12.80;40.60
77985;DHT22;67177;47.240;-1.546;2023-04-04T15:06:06;12.80;40.40
77985;DHT22;67177;47.240;-1.546;2023-04-04T15:08:32;12.80;40.70
77985;DHT22;67177;47.240;-1.546;2023-04-04T15:10:59;12.80;41.00
77985;DHT22;67177;47.240;-1.546;2023-04-04T15:13:25;12.90;41.10
77985;DHT22;67177;47.240;-1.546;2023-04-04T15:15:51;12.90;41.00
77985;DHT22;67177;47.240;-1.546;2023-04-04T15:18:17;12.90;40.70
77985;DHT22;67177;47.240;-1.546;2023-04-04T15:20:42;12.90;40.20
77985;DHT22;67177;47.240;-1.546;2023-04-04T15:23:08;12.90;40.20
77985;DHT22;67177;47.240;-1.546;2023-04-04T15:25:34;12.90;40.00
77985;DHT22;67177;47.240;-1.546;2023-04-04T15:28:01;12.90;39.90
77985;DHT22;67177;47.240;-1.546;2023-04-04T15:30:27;12.90;39.70
77985;DHT22;67177;47.240;-1.546;2023-04-04T15:32:54;12.90;39.40
77985;DHT22;67177;47.240;-1.546;2023-04-04T15:35:21;12.90;39.30
77985;DHT22;67177;47.240;-1.546;2023-04-04T15:37:47;12.90;39.60
77985;DHT22;67177;47.240;-1.546;2023-04-04T15:40:16;12.90;40.00